Terminal Aerodrome Forecast
Issued by NWS

Home | Current Version | Previous Version | Text Only | Print | Product List | Glossary On
Versions: 1 2 3 4 5 6 7 8 9 10 11 12 13 14 15 16 17 18 19 20 21 22 23 24 25 26 27 28 29 30 31 32 33 34
000
FTUS43 KFGF 101733
TAFTVF
TAF
KTVF 101733Z 1018/1118 12003KT P6SM OVC010
     FM101900 12004KT P6SM SCT010
     FM110700 09008KT P6SM OVC025
     FM110900 08008KT 4SM -SN OVC015
     FM111100 08009KT 2SM -SN OVC008
     FM111500 08007KT 1 1/2SM -SN OVC010=

USA.gov is the U.S. government's official web portal to all federal, state and local government web resources and services.